createdAt,value
2022-10-18T00:01:39.686Z,100443.84
2022-10-18T00:04:07.570Z,100430.56
2022-10-18T00:06:37.682Z,100452.09
2022-10-18T00:09:08.294Z,100460.09
2022-10-18T00:11:36.271Z,100364.09
2022-10-18T00:14:04.260Z,100388.84
2022-10-18T00:16:32.256Z,100384.94
2022-10-18T00:19:00.266Z,100402.69
2022-10-18T00:21:28.267Z,100401.69
2022-10-18T00:23:56.140Z,100427.34
2022-10-18T00:26:27.885Z,100433.84
2022-10-18T00:28:58.232Z,100359.66
2022-10-18T00:31:33.559Z,100429.66
2022-10-18T00:34:07.445Z,100430.50
2022-10-18T00:36:35.454Z,100430.38
2022-10-18T00:39:06.393Z,100429.94
2022-10-18T00:41:38.176Z,100427.41
2022-10-18T00:44:11.678Z,100401.22
2022-10-18T00:46:48.917Z,100421.63
2022-10-18T00:49:39.574Z,100423.59
2022-10-18T00:52:14.446Z,100417.25
2022-10-18T00:54:46.384Z,100428.13
2022-10-18T00:57:15.371Z,100426.41
2022-10-18T00:59:44.616Z,100429.50
2022-10-18T01:02:15.203Z,100427.25
2022-10-18T01:04:43.485Z,100426.09
2022-10-18T01:07:25.805Z,100422.97
2022-10-18T01:10:14.272Z,100382.41
2022-10-18T01:13:07.183Z,100414.75
2022-10-18T01:18:31.354Z,100427.16
2022-10-18T01:21:09.113Z,100421.81
2022-10-18T01:24:38.190Z,100420.38
2022-10-18T01:27:42.863Z,100416.03
2022-10-18T01:30:29.451Z,100421.16
2022-10-18T01:33:24.447Z,100399.78
2022-10-18T01:36:22.910Z,100405.69
2022-10-18T01:38:57.123Z,100391.59
2022-10-18T01:41:27.219Z,100387.38
2022-10-18T01:44:01.138Z,100337.34
2022-10-18T01:46:30.060Z,100398.06
2022-10-18T01:48:58.843Z,100350.22
2022-10-18T01:51:29.341Z,100377.50
2022-10-18T01:53:57.995Z,100397.72
2022-10-18T01:56:53.434Z,100392.09
2022-10-18T01:59:50.312Z,100396.88
2022-10-18T02:02:47.246Z,100387.31
2022-10-18T02:05:40.465Z,100396.69
2022-10-18T02:08:35.827Z,100378.69
2022-10-18T02:11:16.432Z,100354.22
2022-10-18T02:14:04.485Z,100324.38
2022-10-18T02:16:54.840Z,100387.53
2022-10-18T02:19:39.204Z,100372.63
2022-10-18T02:22:10.825Z,100376.56
2022-10-18T02:24:44.843Z,100382.66
2022-10-18T02:27:13.652Z,100338.59
2022-10-18T02:29:43.277Z,100334.41
2022-10-18T02:32:55.922Z,100331.97
2022-10-18T02:35:35.582Z,100353.56
2022-10-18T02:38:07.435Z,100374.94
2022-10-18T02:40:35.691Z,100366.81
2022-10-18T02:43:06.754Z,100342.72
2022-10-18T02:45:35.543Z,100365.81
2022-10-18T02:48:03.654Z,100346.78
2022-10-18T02:50:31.475Z,100340.09
2022-10-18T02:52:59.639Z,100364.06
2022-10-18T02:58:00.474Z,100363.94
2022-10-18T03:00:28.421Z,100354.22
2022-10-18T03:02:56.272Z,100364.78
2022-10-18T03:05:24.257Z,100367.56
2022-10-18T03:07:52.184Z,100294.50
2022-10-18T03:10:20.033Z,100370.88
2022-10-18T03:12:48.239Z,100327.94
2022-10-18T03:15:16.272Z,100371.09
2022-10-18T03:17:44.085Z,100381.75
2022-10-18T03:20:12.249Z,100379.47
2022-10-18T03:22:40.241Z,100377.66
2022-10-18T03:25:08.571Z,100367.78
2022-10-18T03:27:36.668Z,100386.75
2022-10-18T03:30:05.872Z,100370.19
2022-10-18T03:32:33.803Z,100374.09
2022-10-18T03:35:02.217Z,100377.78
2022-10-18T03:37:31.105Z,100336.47
2022-10-18T03:39:58.965Z,100374.25
2022-10-18T03:42:27.322Z,100377.69
2022-10-18T03:44:55.388Z,100239.91
2022-10-18T03:47:23.227Z,100371.03
2022-10-18T03:49:54.568Z,100372.84
2022-10-18T03:52:25.300Z,100382.88
2022-10-18T03:54:53.322Z,100329.09
2022-10-18T03:57:21.280Z,100378.56
2022-10-18T03:59:49.435Z,100380.00
2022-10-18T04:02:17.391Z,100338.09
2022-10-18T04:04:45.698Z,100374.69
2022-10-18T04:07:14.108Z,100375.19
2022-10-18T04:09:42.143Z,100348.88
2022-10-18T04:12:10.162Z,100384.41
2022-10-18T04:14:38.313Z,100379.59
2022-10-18T04:17:06.285Z,100371.72
2022-10-18T04:19:34.177Z,100381.63
2022-10-18T04:22:02.252Z,100345.72
2022-10-18T04:24:30.198Z,100384.38
2022-10-18T04:26:58.125Z,100372.41
2022-10-18T04:29:26.108Z,100381.22
2022-10-18T04:31:54.069Z,100367.53
2022-10-18T04:34:22.187Z,100382.75
2022-10-18T04:36:50.268Z,100377.81
2022-10-18T04:39:18.460Z,100374.50
2022-10-18T04:41:46.326Z,100289.22
2022-10-18T04:44:14.931Z,100370.38
2022-10-18T04:46:42.920Z,100377.44
2022-10-18T04:49:10.847Z,100372.91
2022-10-18T04:51:38.807Z,100374.81
2022-10-18T04:54:06.887Z,100378.94
2022-10-18T04:56:34.852Z,100370.25
2022-10-18T04:59:02.906Z,100375.50
2022-10-18T05:01:30.886Z,100323.53
2022-10-18T05:03:58.892Z,100358.41
2022-10-18T05:06:26.961Z,100351.44
2022-10-18T05:08:54.931Z,100307.97
2022-10-18T05:11:22.959Z,100335.13
2022-10-18T05:13:51.144Z,100309.38
2022-10-18T05:16:19.349Z,100356.13
2022-10-18T05:18:47.243Z,100345.75
2022-10-18T05:21:18.354Z,100358.81
2022-10-18T05:23:46.591Z,100364.47
2022-10-18T05:26:17.888Z,100365.38
2022-10-18T05:28:46.236Z,100361.13
2022-10-18T05:31:14.406Z,100373.34
2022-10-18T05:33:42.679Z,100367.72
2022-10-18T05:36:11.557Z,100360.25
2022-10-18T05:38:43.401Z,100372.28
2022-10-18T05:41:13.864Z,100372.59
2022-10-18T05:43:42.129Z,100242.81
2022-10-18T05:46:15.172Z,100366.63
2022-10-18T05:48:49.256Z,100359.75
2022-10-18T05:51:18.706Z,100337.41
2022-10-18T05:53:46.739Z,100323.91
2022-10-18T05:56:15.252Z,100374.66
2022-10-18T05:58:43.902Z,100352.31
2022-10-18T06:01:11.841Z,100376.50
2022-10-18T06:03:39.732Z,100379.31
2022-10-18T06:06:10.949Z,100356.94
2022-10-18T06:08:41.103Z,100376.88
2022-10-18T06:11:18.905Z,100375.03
2022-10-18T06:13:49.456Z,100336.63
2022-10-18T06:16:21.840Z,100386.69
2022-10-18T06:18:52.633Z,100383.13
2022-10-18T06:21:22.611Z,100375.78
2022-10-18T06:23:52.767Z,100327.38
2022-10-18T06:26:21.370Z,100395.31
2022-10-18T06:28:49.897Z,100356.84
2022-10-18T06:31:18.573Z,100352.59
2022-10-18T06:33:46.514Z,100395.97
2022-10-18T06:36:18.623Z,100336.78
2022-10-18T06:38:46.844Z,100395.59
2022-10-18T06:41:15.351Z,100389.25
2022-10-18T06:43:44.100Z,100372.25
2022-10-18T06:46:12.159Z,100388.75
2022-10-18T06:48:40.174Z,100373.31
2022-10-18T06:51:09.393Z,100376.13
2022-10-18T06:53:44.255Z,100389.53
2022-10-18T06:56:21.547Z,100382.44
2022-10-18T06:58:49.705Z,100396.91
2022-10-18T07:01:18.888Z,100400.63
2022-10-18T07:03:49.466Z,100392.00
2022-10-18T07:06:19.241Z,100350.19
2022-10-18T07:08:49.301Z,100357.63
2022-10-18T07:11:26.481Z,100348.44
2022-10-18T07:14:00.999Z,100342.69
2022-10-18T07:16:29.193Z,100389.41
2022-10-18T07:18:57.714Z,100392.38
2022-10-18T07:21:26.499Z,100398.03
2022-10-18T07:23:54.614Z,100391.69
2022-10-18T07:26:31.976Z,100388.94
2022-10-18T07:29:10.507Z,100342.66
2022-10-18T07:31:39.271Z,100340.88
2022-10-18T07:34:10.653Z,100379.50
2022-10-18T07:36:38.769Z,100340.34
2022-10-18T07:39:07.075Z,100365.94
2022-10-18T07:41:35.551Z,100325.88
2022-10-18T07:44:04.872Z,100360.56
2022-10-18T07:46:33.517Z,100362.91
2022-10-18T07:49:01.419Z,100315.84
2022-10-18T07:51:31.267Z,100354.28
2022-10-18T07:54:02.922Z,100352.59
2022-10-18T07:56:30.786Z,100351.22
2022-10-18T07:58:58.993Z,100314.09
2022-10-18T08:01:27.461Z,100349.34
2022-10-18T08:03:55.456Z,100342.03
2022-10-18T08:06:24.841Z,100336.16
2022-10-18T08:08:53.130Z,100325.91
2022-10-18T08:11:24.277Z,100329.00
2022-10-18T08:13:53.708Z,100327.97
2022-10-18T08:16:27.938Z,100322.66
2022-10-18T08:18:58.865Z,100322.13
2022-10-18T08:21:27.387Z,100313.88
2022-10-18T08:23:55.426Z,100321.94
2022-10-18T08:26:24.115Z,100309.88
2022-10-18T08:29:03.548Z,100309.84
2022-10-18T08:31:38.052Z,100297.44
2022-10-18T08:34:05.922Z,100297.41
2022-10-18T08:36:34.125Z,100296.22
2022-10-18T08:39:03.523Z,100263.97
2022-10-18T08:41:37.281Z,100297.53
2022-10-18T08:44:18.409Z,100298.69
2022-10-18T08:47:10.978Z,100285.22
2022-10-18T08:49:56.620Z,100287.00
2022-10-18T08:52:53.859Z,100279.91
2022-10-18T08:58:55.392Z,100265.22
2022-10-18T09:01:38.689Z,100266.81
2022-10-18T09:04:15.801Z,100260.94
2022-10-18T09:06:58.083Z,100266.69
2022-10-18T09:09:39.157Z,100267.34
2022-10-18T09:12:44.700Z,100250.81
2022-10-18T09:15:30.668Z,100247.00
2022-10-18T09:18:32.529Z,100198.94
2022-10-18T09:21:19.836Z,100241.59
2022-10-18T09:24:17.180Z,100215.00
2022-10-18T09:26:55.436Z,100216.84
2022-10-18T09:30:05.178Z,100184.53
2022-10-18T09:32:56.127Z,100211.16
2022-10-18T09:35:48.964Z,100209.75
2022-10-18T09:38:23.397Z,100172.94
2022-10-18T09:41:02.967Z,100187.31
2022-10-18T09:44:03.341Z,100185.31
2022-10-18T09:46:38.996Z,100170.44
2022-10-18T09:49:28.711Z,100175.00
2022-10-18T09:52:02.422Z,100154.88
2022-10-18T09:54:46.963Z,100149.06
2022-10-18T09:57:23.992Z,100156.03
2022-10-18T09:59:51.947Z,100119.34
2022-10-18T10:02:23.585Z,100143.13
2022-10-18T10:04:54.504Z,100140.41
2022-10-18T10:07:32.481Z,100123.22
2022-10-18T10:10:13.800Z,100124.81
2022-10-18T10:12:42.712Z,100120.13
2022-10-18T10:15:31.272Z,100090.22
2022-10-18T10:18:20.598Z,100067.47
2022-10-18T10:20:56.424Z,100104.09
2022-10-18T10:23:32.165Z,100098.09
2022-10-18T10:26:44.554Z,100092.69
2022-10-18T10:29:46.667Z,100083.25
2022-10-18T10:32:18.467Z,100086.91
2022-10-18T10:34:46.749Z,100054.47
2022-10-18T10:37:23.888Z,100081.94
2022-10-18T10:40:33.468Z,100077.94
2022-10-18T10:43:18.138Z,100074.63
2022-10-18T10:46:15.172Z,100051.19
2022-10-18T10:49:15.470Z,100059.81
2022-10-18T10:51:45.207Z,100041.72
2022-10-18T10:54:21.784Z,100043.22
2022-10-18T10:57:12.758Z,99998.81
2022-10-18T10:59:55.420Z,100030.03
2022-10-18T11:02:27.335Z,100038.69
2022-10-18T11:04:57.411Z,100027.34
2022-10-18T11:07:46.588Z,100002.16
2022-10-18T11:10:20.154Z,100017.19
2022-10-18T11:13:05.494Z,100001.31
2022-10-18T11:15:46.541Z,100003.63
2022-10-18T11:18:22.385Z,99996.53
2022-10-18T11:20:56.023Z,99994.84
2022-10-18T11:23:33.521Z,99953.69
2022-10-18T11:26:11.782Z,99980.22
2022-10-18T11:28:51.625Z,99985.91
2022-10-18T11:31:35.162Z,99977.16
2022-10-18T11:34:23.312Z,99967.16
2022-10-18T11:37:28.574Z,99922.16
2022-10-18T11:40:14.438Z,99958.38
2022-10-18T11:43:07.555Z,99956.94
2022-10-18T11:45:50.619Z,99961.13
2022-10-18T11:48:37.196Z,99958.00
2022-10-18T11:51:29.733Z,99943.81
2022-10-18T11:54:55.734Z,99954.25
2022-10-18T11:58:02.514Z,99922.97
2022-10-18T12:01:07.983Z,99929.00
2022-10-18T12:04:15.310Z,99923.97
2022-10-18T12:06:47.509Z,99912.97
2022-10-18T12:09:49.796Z,99921.63
2022-10-18T12:12:27.596Z,99905.59
2022-10-18T12:15:01.116Z,99913.06
2022-10-18T12:17:50.031Z,99892.69
2022-10-18T12:20:30.983Z,99865.16
2022-10-18T12:23:39.540Z,99889.97
2022-10-18T12:26:10.848Z,99884.63
2022-10-18T12:28:49.365Z,99875.31
2022-10-18T12:31:45.773Z,99869.91
2022-10-18T12:34:22.781Z,99865.69
2022-10-18T12:37:42.535Z,99858.16
2022-10-18T12:40:29.805Z,99836.91
2022-10-18T12:42:57.971Z,99809.63
2022-10-18T12:45:46.916Z,99800.31
2022-10-18T12:48:39.180Z,99842.59
2022-10-18T12:51:22.273Z,99829.47
2022-10-18T12:54:17.257Z,99821.25
2022-10-18T12:56:47.217Z,99817.34
2022-10-18T12:59:16.000Z,99816.66
2022-10-18T13:01:53.371Z,99808.78
2022-10-18T13:04:40.637Z,99766.00
2022-10-18T13:07:30.866Z,99809.53
2022-10-18T13:10:12.450Z,99817.66
2022-10-18T13:13:39.063Z,99747.34
2022-10-18T13:16:23.203Z,99818.59
2022-10-18T13:19:15.176Z,99811.91
2022-10-18T13:22:24.805Z,99762.56
2022-10-18T13:25:21.040Z,99790.47
2022-10-18T13:28:26.830Z,99788.59
2022-10-18T13:31:28.115Z,99749.44
2022-10-18T13:33:56.264Z,99788.59
2022-10-18T13:36:29.862Z,99750.50
2022-10-18T13:39:02.317Z,99775.47
2022-10-18T13:42:00.408Z,99777.78
2022-10-18T13:44:30.688Z,99779.03
2022-10-18T13:46:58.510Z,99775.47
2022-10-18T13:49:59.223Z,99776.53
2022-10-18T13:53:19.315Z,99748.81
2022-10-18T13:56:40.969Z,99763.78
2022-10-18T14:02:59.680Z,99751.72
2022-10-18T14:06:16.229Z,99741.31
2022-10-18T14:08:57.040Z,99745.09
2022-10-18T14:11:46.276Z,99750.06
2022-10-18T14:14:20.738Z,99752.97
2022-10-18T14:17:07.258Z,99736.97
2022-10-18T14:19:49.695Z,99738.00
2022-10-18T14:22:24.988Z,99719.28
2022-10-18T14:24:57.854Z,99706.72
2022-10-18T14:27:29.328Z,99705.47
2022-10-18T14:30:18.898Z,99695.47
2022-10-18T14:32:50.625Z,99717.38
2022-10-18T14:35:32.713Z,99713.78
2022-10-18T14:38:02.275Z,99685.84
2022-10-18T14:40:39.129Z,99727.44
2022-10-18T14:43:13.944Z,99716.78
2022-10-18T14:45:43.084Z,99728.41
2022-10-18T14:48:24.901Z,99687.97
2022-10-18T14:51:01.157Z,99713.56
2022-10-18T14:53:37.996Z,99719.47
2022-10-18T14:56:08.483Z,99676.31
2022-10-18T14:58:38.340Z,99703.09
2022-10-18T15:01:06.709Z,99699.84
2022-10-18T15:03:36.763Z,99702.66
2022-10-18T15:06:07.779Z,99696.31
2022-10-18T15:08:43.917Z,99696.56
2022-10-18T15:11:15.670Z,99692.47
2022-10-18T15:14:06.904Z,99656.22
2022-10-18T15:16:38.605Z,99673.59
2022-10-18T15:19:37.149Z,99680.78
2022-10-18T15:22:38.237Z,99676.81
2022-10-18T15:25:06.518Z,99678.69
2022-10-18T15:27:38.397Z,99639.56
2022-10-18T15:30:13.961Z,99682.69
2022-10-18T15:33:00.153Z,99667.66
2022-10-18T15:35:34.865Z,99695.44
2022-10-18T15:38:27.486Z,99694.44
2022-10-18T15:40:55.928Z,99688.31
2022-10-18T15:43:23.691Z,99703.00
2022-10-18T15:46:00.286Z,99697.34
2022-10-18T15:48:36.350Z,99688.13
2022-10-18T15:51:45.991Z,99704.06
2022-10-18T15:54:29.420Z,99714.25
2022-10-18T15:56:57.864Z,99702.44
2022-10-18T15:59:32.165Z,99695.25
2022-10-18T16:02:00.495Z,99703.50
2022-10-18T16:04:31.891Z,99708.34
2022-10-18T16:07:00.692Z,99701.22
2022-10-18T16:09:29.661Z,99708.91
2022-10-18T16:11:58.647Z,99708.91
2022-10-18T16:14:27.695Z,99661.28
2022-10-18T16:17:02.086Z,99710.81
2022-10-18T16:19:30.784Z,99704.91
2022-10-18T16:22:03.631Z,99692.22
2022-10-18T16:24:34.502Z,99707.25
2022-10-18T16:27:02.559Z,99714.53
2022-10-18T16:29:32.719Z,99661.81
2022-10-18T16:32:01.739Z,99706.00
2022-10-18T16:34:32.270Z,99702.84
2022-10-18T16:37:00.380Z,99662.56
2022-10-18T16:39:30.263Z,99661.22
2022-10-18T16:41:58.357Z,99693.28
2022-10-18T16:44:26.648Z,99689.63
2022-10-18T16:46:56.302Z,99698.38
2022-10-18T16:49:26.973Z,99703.22
2022-10-18T16:51:55.771Z,99693.28
2022-10-18T16:54:24.041Z,99702.38
2022-10-18T16:56:52.449Z,99679.75
2022-10-18T16:59:32.000Z,99699.00
2022-10-18T17:02:05.737Z,99697.16
2022-10-18T17:04:34.773Z,99686.63
2022-10-18T17:07:05.594Z,99648.53
2022-10-18T17:09:37.043Z,99687.63
2022-10-18T17:12:05.768Z,99684.81
2022-10-18T17:14:36.554Z,99643.19
2022-10-18T17:17:04.844Z,99687.66
2022-10-18T17:19:32.871Z,99636.19
2022-10-18T17:22:02.713Z,99685.84
2022-10-18T17:24:31.131Z,99687.81
2022-10-18T17:26:59.199Z,99690.31
2022-10-18T17:29:27.382Z,99697.22
2022-10-18T17:31:57.204Z,99654.75
2022-10-18T17:34:25.311Z,99689.19
2022-10-18T17:36:53.313Z,99691.56
2022-10-18T17:39:21.807Z,99611.47
2022-10-18T17:41:50.778Z,99681.56
2022-10-18T17:44:18.925Z,99680.22
2022-10-18T17:46:47.404Z,99672.22
2022-10-18T17:49:17.102Z,99641.25
2022-10-18T17:51:46.635Z,99684.81
2022-10-18T17:54:15.315Z,99675.09
2022-10-18T17:56:43.516Z,99638.50
2022-10-18T17:59:11.747Z,99678.09
2022-10-18T18:01:40.122Z,99677.91
2022-10-18T18:04:08.171Z,99622.84
2022-10-18T18:06:39.255Z,99659.63
2022-10-18T18:09:14.020Z,99661.63
2022-10-18T18:11:44.880Z,99634.19
2022-10-18T18:14:13.786Z,99657.22
2022-10-18T18:16:44.854Z,99648.88
2022-10-18T18:19:14.784Z,99654.41
2022-10-18T18:21:43.517Z,99649.19
2022-10-18T18:24:14.486Z,99637.19
2022-10-18T18:26:43.622Z,99619.16
2022-10-18T18:29:13.865Z,99644.22
2022-10-18T18:31:43.934Z,99606.97
2022-10-18T18:34:12.706Z,99619.34
2022-10-18T18:36:41.414Z,99634.00
2022-10-18T18:39:18.961Z,99612.81
2022-10-18T18:41:51.373Z,99661.00
2022-10-18T18:44:21.901Z,99627.00
2022-10-18T18:46:51.841Z,99560.44
2022-10-18T18:49:20.050Z,99632.91
2022-10-18T18:51:48.589Z,99630.66
2022-10-18T18:54:17.750Z,99589.16
2022-10-18T18:56:46.019Z,99613.53
2022-10-18T18:59:15.988Z,99628.59
2022-10-18T19:01:47.095Z,99602.44
2022-10-18T19:04:16.115Z,99625.97
2022-10-18T19:06:46.932Z,99625.78
2022-10-18T19:09:22.940Z,99630.97
2022-10-18T19:11:54.792Z,99615.13
2022-10-18T19:14:25.575Z,99622.63
2022-10-18T19:17:02.137Z,99622.00
2022-10-18T19:19:31.569Z,99626.16
2022-10-18T19:22:05.072Z,99620.78
2022-10-18T19:24:33.920Z,99623.13
2022-10-18T19:27:14.230Z,99623.84
2022-10-18T19:29:44.240Z,99585.72
2022-10-18T19:32:13.743Z,99626.53
2022-10-18T19:34:42.896Z,99618.84
2022-10-18T19:37:16.372Z,99634.88
2022-10-18T19:39:47.530Z,99574.75
2022-10-18T19:42:19.219Z,99623.00
2022-10-18T19:44:52.587Z,99620.31
2022-10-18T19:47:21.369Z,99635.56
2022-10-18T19:49:49.457Z,99638.06
2022-10-18T19:52:20.290Z,99571.34
2022-10-18T19:54:51.528Z,99649.38
2022-10-18T19:57:19.593Z,99657.44
2022-10-18T19:59:47.611Z,99656.03
2022-10-18T20:02:16.036Z,99655.63
2022-10-18T20:04:43.979Z,99672.97
2022-10-18T20:07:12.055Z,99688.94
2022-10-18T20:09:40.451Z,99696.09
2022-10-18T20:12:08.631Z,99686.06
2022-10-18T20:14:38.345Z,99702.47
2022-10-18T20:20:23.528Z,99717.75
2022-10-18T20:22:56.690Z,99700.09
2022-10-18T20:25:25.488Z,99750.94
2022-10-18T20:27:53.466Z,99758.19
2022-10-18T20:30:21.585Z,99765.97
2022-10-18T20:32:53.286Z,99731.09
2022-10-18T20:35:21.617Z,99799.75
2022-10-18T20:37:49.734Z,99807.72
2022-10-18T20:40:17.873Z,99788.03
2022-10-18T20:42:45.883Z,99789.03
2022-10-18T20:45:13.874Z,99801.09
2022-10-18T20:47:42.801Z,99799.66
2022-10-18T20:50:10.919Z,99787.78
2022-10-18T20:52:39.051Z,99788.31
2022-10-18T20:55:07.633Z,99801.34
2022-10-18T20:57:36.619Z,99795.31
2022-10-18T21:00:05.836Z,99777.78
2022-10-18T21:02:43.129Z,99705.88
2022-10-18T21:05:12.162Z,99746.81
2022-10-18T21:07:40.269Z,99783.88
2022-10-18T21:10:08.946Z,99789.22
2022-10-18T21:12:37.371Z,99753.16
2022-10-18T21:15:06.915Z,99795.78
2022-10-18T21:17:35.121Z,99767.88
2022-10-18T21:20:03.749Z,99819.13
2022-10-18T21:22:31.828Z,99816.47
2022-10-18T21:25:00.121Z,99827.47
2022-10-18T21:27:28.226Z,99781.34
2022-10-18T21:29:56.168Z,99810.53
2022-10-18T21:32:24.234Z,99817.22
2022-10-18T21:34:52.373Z,99811.06
2022-10-18T21:37:20.923Z,99816.69
2022-10-18T21:39:49.331Z,99741.53
2022-10-18T21:42:17.390Z,99812.47
2022-10-18T21:44:45.688Z,99750.84
2022-10-18T21:47:13.899Z,99819.94
2022-10-18T21:49:42.579Z,99824.59
2022-10-18T21:52:10.509Z,99782.41
2022-10-18T21:54:38.448Z,99769.22
2022-10-18T21:57:06.390Z,99829.88
2022-10-18T21:59:34.513Z,99800.44
2022-10-18T22:02:03.132Z,99818.66
2022-10-18T22:04:35.866Z,99837.09
2022-10-18T22:07:05.104Z,99846.59
2022-10-18T22:09:33.513Z,99844.88
2022-10-18T22:12:01.454Z,99834.22
2022-10-18T22:14:29.527Z,99790.56
2022-10-18T22:16:57.523Z,99823.47
2022-10-18T22:19:25.851Z,99828.88
2022-10-18T22:21:54.090Z,99848.38
2022-10-18T22:24:22.756Z,99861.47
2022-10-18T22:26:51.249Z,99841.56
2022-10-18T22:29:21.789Z,99800.69
2022-10-18T22:31:52.707Z,99830.47
2022-10-18T22:34:29.720Z,99822.44
2022-10-18T22:36:58.336Z,99831.28
2022-10-18T22:39:26.425Z,99781.84
2022-10-18T22:41:56.865Z,99846.31
2022-10-18T22:44:25.579Z,99844.78
2022-10-18T22:46:53.431Z,99848.59
2022-10-18T22:49:21.670Z,99850.41
2022-10-18T22:51:50.065Z,99786.97
2022-10-18T22:54:18.355Z,99830.59
2022-10-18T22:56:46.502Z,99841.94
2022-10-18T22:59:15.147Z,99844.47
2022-10-18T23:01:42.960Z,99842.66
2022-10-18T23:04:12.130Z,99848.97
2022-10-18T23:06:40.515Z,99799.84
2022-10-18T23:09:10.893Z,99840.28
2022-10-18T23:11:39.117Z,99849.25
2022-10-18T23:14:07.692Z,99823.94
2022-10-18T23:16:35.916Z,99856.44
2022-10-18T23:19:04.142Z,99854.91
2022-10-18T23:21:33.663Z,99817.22
2022-10-18T23:24:01.562Z,99826.44
2022-10-18T23:26:29.785Z,99847.44
2022-10-18T23:28:58.042Z,99815.75
2022-10-18T23:31:30.074Z,99846.41
2022-10-18T23:34:02.194Z,99856.38
2022-10-18T23:36:32.525Z,99851.03
2022-10-18T23:39:00.751Z,99851.59
2022-10-18T23:41:29.092Z,99857.47
2022-10-18T23:43:57.072Z,99851.44
2022-10-18T23:46:25.442Z,99862.09
2022-10-18T23:48:53.505Z,99815.91
2022-10-18T23:51:21.384Z,99857.06
2022-10-18T23:53:50.829Z,99863.56
2022-10-18T23:56:18.898Z,99810.66
2022-10-18T23:58:46.970Z,99854.22
